createdAt,value
2022-07-25T06:31:00.441Z,20.85
2022-07-25T06:33:37.766Z,20.86
2022-07-25T06:36:14.867Z,20.96
2022-07-25T06:38:52.019Z,21.01
2022-07-25T06:41:28.687Z,21.04
2022-07-25T06:44:06.100Z,21.07
2022-07-25T06:46:45.710Z,21.14
2022-07-25T06:49:22.809Z,21.19
2022-07-25T06:51:59.483Z,21.30
2022-07-25T06:54:36.702Z,21.28
2022-07-25T06:57:13.556Z,21.43
2022-07-25T06:59:50.783Z,21.51
2022-07-25T07:02:30.530Z,21.61
2022-07-25T07:05:09.009Z,21.67
2022-07-25T07:07:47.980Z,21.72
2022-07-25T07:10:26.736Z,21.79
2022-07-25T07:13:11.277Z,21.85
2022-07-25T07:15:51.424Z,21.94
2022-07-25T07:18:32.102Z,22.03
2022-07-25T07:21:11.163Z,22.15
2022-07-25T07:23:58.358Z,22.21
2022-07-25T07:26:36.297Z,22.36
2022-07-25T07:29:13.584Z,22.45
2022-07-25T07:31:50.843Z,22.51
2022-07-25T07:34:30.297Z,22.58
2022-07-25T07:37:07.398Z,22.64
2022-07-25T07:39:44.335Z,22.69
2022-07-25T07:42:21.457Z,22.73
2022-07-25T07:44:58.349Z,22.81
2022-07-25T07:47:35.336Z,22.80
2022-07-25T07:50:14.996Z,22.90
2022-07-25T07:52:53.410Z,22.96
2022-07-25T07:55:42.836Z,23.05
2022-07-25T07:58:22.486Z,23.10
2022-07-25T08:00:59.341Z,23.13
2022-07-25T08:03:36.543Z,23.17
2022-07-25T08:06:15.939Z,23.30
2022-07-25T08:08:53.079Z,23.34
2022-07-25T08:11:30.138Z,23.38
2022-07-25T08:14:07.805Z,23.44
2022-07-25T08:16:44.764Z,23.54
2022-07-25T08:19:21.820Z,23.61
2022-07-25T08:22:01.192Z,23.69
2022-07-25T08:24:38.362Z,23.72
2022-07-25T08:27:15.085Z,23.80
2022-07-25T08:29:53.505Z,23.87
2022-07-25T08:32:30.367Z,23.99
2022-07-25T08:35:11.369Z,24.07
2022-07-25T08:37:52.117Z,24.15
2022-07-25T08:40:31.611Z,24.22
2022-07-25T08:43:09.214Z,24.21
2022-07-25T08:45:50.261Z,24.31
2022-07-25T08:48:30.117Z,24.37
2022-07-25T08:51:07.801Z,24.52
2022-07-25T08:53:48.512Z,24.61
2022-07-25T08:56:25.981Z,24.69
2022-07-25T08:59:03.752Z,24.86
2022-07-25T09:01:43.970Z,24.98
2022-07-25T09:04:21.555Z,25.07
2022-07-25T09:06:58.750Z,25.17
2022-07-25T09:09:42.093Z,25.32
2022-07-25T09:12:28.462Z,25.48
2022-07-25T09:15:05.230Z,25.60
2022-07-25T09:17:54.732Z,25.73
2022-07-25T09:20:43.781Z,25.82
2022-07-25T09:23:38.380Z,25.91
2022-07-25T09:26:19.101Z,26.04
2022-07-25T09:28:57.322Z,26.11
2022-07-25T09:31:41.017Z,26.21
2022-07-25T09:34:34.334Z,26.28
2022-07-25T09:37:12.846Z,26.38
2022-07-25T09:39:54.025Z,26.44
2022-07-25T09:42:36.731Z,26.49
2022-07-25T09:45:16.574Z,26.54
2022-07-25T09:47:59.210Z,26.65
2022-07-25T09:50:37.287Z,26.70
2022-07-25T09:53:15.219Z,26.79
2022-07-25T09:55:53.725Z,26.88
2022-07-25T09:58:33.915Z,27.02
2022-07-25T10:01:11.979Z,27.10
2022-07-25T10:03:55.625Z,27.22
2022-07-25T10:06:43.266Z,27.33
2022-07-25T10:09:20.639Z,27.40
2022-07-25T10:12:12.545Z,27.40
2022-07-25T10:15:11.782Z,27.50
2022-07-25T10:17:50.696Z,27.60
2022-07-25T10:20:32.685Z,27.72
2022-07-25T10:23:22.458Z,27.78
2022-07-25T10:26:10.555Z,27.80
2022-07-25T10:28:50.085Z,27.87
2022-07-25T10:31:38.846Z,28.03
2022-07-25T10:34:16.988Z,28.09
2022-07-25T10:36:58.896Z,28.09
2022-07-25T10:39:45.021Z,28.17
2022-07-25T10:42:27.106Z,28.25
2022-07-25T10:45:09.822Z,28.34
2022-07-25T10:47:57.866Z,28.47
2022-07-25T10:50:54.842Z,28.47
2022-07-25T10:53:40.117Z,28.47
2022-07-25T10:56:20.352Z,28.52
2022-07-25T10:58:59.087Z,28.57
2022-07-25T11:01:38.838Z,28.55
2022-07-25T11:04:20.917Z,28.64
2022-07-25T11:06:58.286Z,28.70
2022-07-25T11:09:35.039Z,28.76
2022-07-25T11:12:17.472Z,28.81
2022-07-25T11:14:54.307Z,28.87
2022-07-25T11:17:31.340Z,28.90
2022-07-25T11:20:13.853Z,28.95
2022-07-25T11:22:56.968Z,29.06
2022-07-25T11:25:33.900Z,29.12
2022-07-25T11:28:10.977Z,29.17
2022-07-25T11:30:48.006Z,29.13
2022-07-25T11:33:25.105Z,29.20
2022-07-25T11:36:05.159Z,29.33
2022-07-25T11:38:43.531Z,29.44
2022-07-25T11:41:30.876Z,29.41
2022-07-25T11:44:08.398Z,29.42
2022-07-25T11:46:48.358Z,29.51
2022-07-25T11:49:25.497Z,29.66
2022-07-25T11:52:07.585Z,29.79
2022-07-25T11:54:54.329Z,29.91
2022-07-25T11:57:33.977Z,29.98
2022-07-25T12:00:19.551Z,30.04
2022-07-25T12:02:56.697Z,30.11
2022-07-25T12:05:37.117Z,30.26
2022-07-25T12:08:18.227Z,30.36
2022-07-25T12:10:56.157Z,30.43
2022-07-25T12:13:34.446Z,30.53
2022-07-25T12:16:12.702Z,30.66
2022-07-25T12:18:49.518Z,30.87
2022-07-25T12:21:27.009Z,31.08
2022-07-25T12:24:06.761Z,31.30
2022-07-25T12:26:43.857Z,31.48
2022-07-25T12:29:20.548Z,31.62
2022-07-25T12:31:57.599Z,31.75
2022-07-25T12:34:35.005Z,32.01
2022-07-25T12:37:12.147Z,32.30
2022-07-25T12:39:51.652Z,32.35
2022-07-25T12:42:29.247Z,32.50
2022-07-25T12:45:06.147Z,32.63
2022-07-25T12:47:43.317Z,32.84
2022-07-25T12:50:21.196Z,33.01
2022-07-25T12:52:58.318Z,32.99
2022-07-25T12:55:37.975Z,32.97
2022-07-25T12:58:15.588Z,32.84
2022-07-25T13:00:52.489Z,32.81
2022-07-25T13:03:29.645Z,32.74
2022-07-25T13:06:07.677Z,32.99
2022-07-25T13:08:44.768Z,33.14
2022-07-25T13:11:24.247Z,33.38
2022-07-25T13:14:01.456Z,33.23
2022-07-25T13:16:39.302Z,33.05
2022-07-25T13:19:17.517Z,33.07
2022-07-25T13:21:54.325Z,33.08
2022-07-25T13:24:31.581Z,33.18
2022-07-25T13:27:11.942Z,33.43
2022-07-25T13:29:54.671Z,33.58
2022-07-25T13:32:32.168Z,33.68
2022-07-25T13:35:11.187Z,33.77
2022-07-25T13:37:48.150Z,34.02
2022-07-25T13:40:25.489Z,34.24
2022-07-25T13:43:04.891Z,34.50
2022-07-25T13:45:42.678Z,34.60
2022-07-25T13:48:29.563Z,34.66
2022-07-25T13:51:08.004Z,34.93
2022-07-25T13:53:45.231Z,35.47
2022-07-25T13:56:22.405Z,35.47
2022-07-25T13:59:01.837Z,36.24
2022-07-25T14:01:39.215Z,36.00
2022-07-25T14:04:16.277Z,36.31
2022-07-25T14:06:54.990Z,36.65
2022-07-25T14:09:31.796Z,36.25
2022-07-25T14:12:09.758Z,36.12
2022-07-25T14:14:49.270Z,35.51
2022-07-25T14:17:30.118Z,35.27
2022-07-25T14:20:08.527Z,34.77
2022-07-25T14:22:46.055Z,34.31
2022-07-25T14:25:23.131Z,33.82
2022-07-25T14:28:00.438Z,33.61
2022-07-25T14:30:39.860Z,33.31
2022-07-25T14:33:17.281Z,33.06
2022-07-25T14:35:54.174Z,32.80
2022-07-25T14:38:31.322Z,32.72
2022-07-25T14:41:12.828Z,32.75
2022-07-25T14:43:50.402Z,32.80
2022-07-25T14:46:30.375Z,32.74
2022-07-25T14:49:09.005Z,32.54
2022-07-25T14:51:47.342Z,32.47
2022-07-25T14:54:26.163Z,32.23
2022-07-25T14:57:04.839Z,32.21
2022-07-25T14:59:42.050Z,32.23
2022-07-25T15:02:21.571Z,32.22
2022-07-25T15:04:59.035Z,32.24
2022-07-25T15:07:36.561Z,32.17
2022-07-25T15:10:14.761Z,32.34
2022-07-25T15:13:07.872Z,32.53
2022-07-25T15:15:49.885Z,32.82
2022-07-25T15:18:30.294Z,32.85
2022-07-25T15:21:08.126Z,33.11
2022-07-25T15:23:45.842Z,33.01
2022-07-25T15:26:23.874Z,32.87
2022-07-25T15:29:01.184Z,32.84
2022-07-25T15:31:38.508Z,32.56
2022-07-25T15:34:18.083Z,32.53
2022-07-25T15:36:55.432Z,32.62
2022-07-25T15:39:32.178Z,32.60
2022-07-25T15:42:09.861Z,32.49
2022-07-25T15:44:46.638Z,32.32
2022-07-25T15:47:23.699Z,32.30
2022-07-25T15:50:03.190Z,31.99
2022-07-25T15:52:40.448Z,31.98
2022-07-25T15:55:17.221Z,32.12
2022-07-25T15:57:55.978Z,32.33
2022-07-25T16:00:33.026Z,32.39
2022-07-25T16:03:11.518Z,32.45
2022-07-25T16:05:50.958Z,32.36
2022-07-25T16:08:28.133Z,32.10
2022-07-25T16:11:04.938Z,31.99
2022-07-25T16:13:42.319Z,31.90
2022-07-25T16:16:22.305Z,32.07
2022-07-25T16:19:00.459Z,32.10
2022-07-25T16:21:40.298Z,31.91
2022-07-25T16:24:17.478Z,31.74
2022-07-25T16:26:54.437Z,31.68
2022-07-25T16:29:31.555Z,31.53
2022-07-25T16:32:10.050Z,31.48
2022-07-25T16:34:47.649Z,31.41
2022-07-25T16:37:27.647Z,31.38
2022-07-25T16:40:05.032Z,31.22
2022-07-25T16:42:41.800Z,31.11
2022-07-25T16:45:18.938Z,31.07
2022-07-25T16:47:55.715Z,31.04
2022-07-25T16:50:32.818Z,30.99
2022-07-25T16:53:12.228Z,30.90
2022-07-25T16:55:49.313Z,30.84
2022-07-25T16:58:26.058Z,30.79
2022-07-25T17:01:03.117Z,30.68
2022-07-25T17:03:40.079Z,30.60
2022-07-25T17:06:17.401Z,30.58
2022-07-25T17:08:57.268Z,30.50
2022-07-25T17:11:35.027Z,30.42
2022-07-25T17:14:12.614Z,30.37
2022-07-25T17:16:51.828Z,30.30
2022-07-25T17:19:29.373Z,30.24
2022-07-25T17:22:06.760Z,30.14
2022-07-25T17:24:46.832Z,29.99
2022-07-25T17:27:24.150Z,29.84
2022-07-25T17:30:02.529Z,29.71
2022-07-25T17:32:40.219Z,29.64
2022-07-25T17:35:17.048Z,29.60
2022-07-25T17:37:54.302Z,29.52
2022-07-25T17:40:33.799Z,29.47
2022-07-25T17:43:10.874Z,29.43
2022-07-25T17:45:47.769Z,29.40
2022-07-25T17:48:24.847Z,29.38
2022-07-25T17:51:01.726Z,29.34
2022-07-25T17:53:38.977Z,29.33
2022-07-25T17:56:18.337Z,29.33
2022-07-25T17:58:55.470Z,29.29
2022-07-25T18:01:32.496Z,29.25
2022-07-25T18:04:10.163Z,29.14
2022-07-25T18:06:47.118Z,29.05
2022-07-25T18:09:27.888Z,29.00
2022-07-25T18:12:08.069Z,28.94
2022-07-25T18:14:45.220Z,28.84
2022-07-25T18:17:21.971Z,28.73
2022-07-25T18:19:59.107Z,28.65
2022-07-25T18:22:35.831Z,28.58
2022-07-25T18:25:15.420Z,28.52
2022-07-25T18:27:54.811Z,28.42
2022-07-25T18:30:32.220Z,28.36
2022-07-25T18:33:09.183Z,28.25
2022-07-25T18:35:46.400Z,28.20
2022-07-25T18:38:23.619Z,28.10
2022-07-25T18:41:26.284Z,28.01
2022-07-25T18:44:01.369Z,27.89
2022-07-25T18:46:39.147Z,27.81
2022-07-25T18:49:18.046Z,27.73
2022-07-25T18:51:55.099Z,27.62
2022-07-25T18:54:31.998Z,27.56
2022-07-25T18:57:09.666Z,27.50
2022-07-25T18:59:49.266Z,27.45
2022-07-25T19:02:26.817Z,27.38
2022-07-25T19:05:03.754Z,27.30
2022-07-25T19:07:40.834Z,27.25
2022-07-25T19:10:17.767Z,27.20
2022-07-25T19:12:54.897Z,27.14
2022-07-25T19:15:34.630Z,27.09
2022-07-25T19:18:11.644Z,27.01
2022-07-25T19:20:48.377Z,26.97
2022-07-25T19:23:25.417Z,26.92
2022-07-25T19:26:02.329Z,26.84
2022-07-25T19:28:39.879Z,26.77
2022-07-25T19:31:19.792Z,26.74
2022-07-25T19:33:57.027Z,26.64
2022-07-25T19:36:33.777Z,26.59
2022-07-25T19:39:11.909Z,26.55
2022-07-25T19:41:48.797Z,26.48
2022-07-25T19:44:25.934Z,26.44
2022-07-25T19:47:11.260Z,26.39
2022-07-25T19:49:48.852Z,26.31
2022-07-25T19:52:25.638Z,26.21
2022-07-25T19:55:03.293Z,26.16
2022-07-25T19:57:40.921Z,26.14
2022-07-25T20:00:19.207Z,26.06
2022-07-25T20:02:58.925Z,26.01
2022-07-25T20:05:36.424Z,25.97
2022-07-25T20:08:13.277Z,25.91
2022-07-25T20:10:50.615Z,25.86
2022-07-25T20:13:28.324Z,25.78
2022-07-25T20:16:06.174Z,25.75
2022-07-25T20:18:45.889Z,25.71
2022-07-25T20:21:23.227Z,25.64
2022-07-25T20:24:00.834Z,25.60
2022-07-25T20:26:37.966Z,25.52
2022-07-25T20:29:15.004Z,25.48
2022-07-25T20:31:53.094Z,25.41
2022-07-25T20:34:33.112Z,25.37
2022-07-25T20:37:10.365Z,25.36
2022-07-25T20:39:48.239Z,25.34
2022-07-25T20:42:26.074Z,25.25
2022-07-25T20:45:03.228Z,25.23
2022-07-25T20:47:40.496Z,25.20
2022-07-25T20:50:20.325Z,25.15
2022-07-25T20:52:57.996Z,25.12
2022-07-25T20:55:34.782Z,25.08
2022-07-25T20:58:12.184Z,25.02
2022-07-25T21:00:49.353Z,24.97
2022-07-25T21:03:26.554Z,24.92
2022-07-25T21:06:06.120Z,24.90
2022-07-25T21:08:43.595Z,24.83
2022-07-25T21:11:20.625Z,24.80
2022-07-25T21:13:58.555Z,24.77
2022-07-25T21:16:36.302Z,24.69
2022-07-25T21:19:13.445Z,24.67
2022-07-25T21:21:53.792Z,24.62
2022-07-25T21:24:30.918Z,24.59
2022-07-25T21:27:07.925Z,24.51
2022-07-25T21:29:45.122Z,24.51
2022-07-25T21:32:23.541Z,24.45
2022-07-25T21:35:00.858Z,24.42
2022-07-25T21:37:40.479Z,24.42
2022-07-25T21:40:18.079Z,24.40
2022-07-25T21:42:55.072Z,24.39
2022-07-25T21:45:32.339Z,24.35
2022-07-25T21:48:10.455Z,24.32
2022-07-25T21:50:46.138Z,24.30
